Albany, Vermont
Current Conditions -  °F | °C
As of 11:55 AM on Wednesday 22 Oct 2014 (Local Time) from KEFK Reporting Station
Overcast Overcast  
Wind Chill:   Ceiling: 300
Heat Index:   Visibility: 7mi
Dew Point:   Wind: 15mph
Humidity: 96%   Direction: 360°N
Pressure: 30.22"   Gusts: NA
Location:  44.73°N, 72.38°W
Report Text: KEFK 221555Z AUTO 36013KT 7SM OVC003 06/06 A3022 RMK AO2 T00630057
Loading
Personal Weather Stations






























Interactive Weather Map
Tropical Storm Tracking
New forecast layout! Learn more

10-Day Weather Forecast

Advertisements
Track Severe Weather on mobile